Time;durP1;ratioP1;P1;durP2;ratioP2;P2;SDS_P1;SDS_P2;PMS_P1;PMS_P2;Temp;Humidity;BMP_temperature;BMP_pressure;BME280_temperature;BME280_humidity;BME280_pressure;Samples;Min_cycle;Max_cycle;Signal;HPM_P1;HPM_P2
2023/05/27 00:02:00;;;;;;;12.60;5.13;;;11.60;91.30;;;;;;6149668;23;20890;-76
2023/05/27 00:04:26;;;;;;;14.77;5.50;;;11.60;91.70;;;;;;6172474;23;20205;-76
2023/05/27 00:06:53;;;;;;;16.03;4.80;;;11.60;92.20;;;;;;6119334;23;20234;-75
2023/05/27 00:09:18;;;;;;;16.57;4.53;;;11.60;92.10;;;;;;6144323;23;20468;-76
2023/05/27 00:11:44;;;;;;;12.47;4.57;;;11.60;92.40;;;;;;6144027;23;20367;-76
2023/05/27 00:14:10;;;;;;;11.43;5.13;;;11.60;92.70;;;;;;6120485;23;20180;-77
2023/05/27 00:16:36;;;;;;;13.70;5.47;;;11.60;92.60;;;;;;6143908;23;20162;-75
2023/05/27 00:19:02;;;;;;;11.53;4.83;;;11.60;92.80;;;;;;6171595;23;20391;-75
2023/05/27 00:21:28;;;;;;;12.43;4.60;;;11.60;92.50;;;;;;6145596;23;20215;-76
2023/05/27 00:23:57;;;;;;;10.20;4.00;;;11.50;92.90;;;;;;6145689;23;20375;-76
2023/05/27 00:26:23;;;;;;;13.43;4.57;;;11.60;92.80;;;;;;6145628;23;20572;-76
2023/05/27 00:28:51;;;;;;;19.27;4.50;;;11.50;93.10;;;;;;6121666;23;20415;-76
2023/05/27 00:31:17;;;;;;;13.93;4.50;;;11.40;93.80;;;;;;6146659;23;20371;-76
2023/05/27 00:33:44;;;;;;;12.20;4.53;;;11.40;94.70;;;;;;6150430;23;20370;-77
2023/05/27 00:36:11;;;;;;;13.17;5.40;;;11.30;94.90;;;;;;6176846;23;20377;-75
2023/05/27 00:38:37;;;;;;;14.43;5.23;;;11.30;95.40;;;;;;6177494;23;20370;-75
2023/05/27 00:41:04;;;;;;;20.80;5.20;;;11.20;95.80;;;;;;6176765;23;20142;-77
2023/05/27 00:43:32;;;;;;;11.80;4.47;;;11.20;96.20;;;;;;6150780;23;20378;-78
2023/05/27 00:46:02;;;;;;;20.30;5.80;;;11.10;96.50;;;;;;6176737;23;20401;-77
2023/05/27 00:48:29;;;;;;;10.80;4.60;;;11.10;97.30;;;;;;6177764;23;20388;-76
2023/05/27 00:50:55;;;;;;;15.27;5.30;;;11.10;97.40;;;;;;6175826;23;20370;-75
2023/05/27 00:53:23;;;;;;;12.67;4.47;;;11.10;97.90;;;;;;6196927;23;20498;-77
2023/05/27 00:55:54;;;;;;;12.77;5.13;;;11.10;97.70;;;;;;6172757;23;20513;-76
2023/05/27 00:58:23;;;;;;;14.43;4.53;;;11.00;97.80;;;;;;6172953;23;20398;-77
2023/05/27 01:00:49;;;;;;;12.93;5.20;;;11.00;98.30;;;;;;6175006;23;20727;-76
2023/05/27 01:03:15;;;;;;;17.77;6.13;;;11.00;98.30;;;;;;6175850;23;20453;-75
2023/05/27 01:05:41;;;;;;;11.70;4.97;;;10.90;98.40;;;;;;6146317;23;20202;-77
2023/05/27 01:08:11;;;;;;;12.13;5.57;;;10.90;98.90;;;;;;6170008;23;20379;-75
2023/05/27 01:10:52;;;;;;;11.07;5.40;;;11.00;98.80;;;;;;6170941;23;20383;-76
2023/05/27 01:13:44;;;;;;;17.50;5.37;;;10.90;98.80;;;;;;6172901;23;20396;-76
2023/05/27 01:16:13;;;;;;;14.83;5.00;;;10.90;99.30;;;;;;6146549;23;20363;-77
2023/05/27 01:18:43;;;;;;;10.07;5.03;;;10.90;99.50;;;;;;6146237;23;20382;-75
2023/05/27 01:21:14;;;;;;;12.50;5.90;;;10.80;99.90;;;;;;6172102;23;20347;-75
2023/05/27 01:23:44;;;;;;;17.57;5.43;;;10.90;99.90;;;;;;6144789;23;20952;-74
2023/05/27 01:26:10;;;;;;;12.20;6.27;;;10.90;99.90;;;;;;6167652;23;20451;-75
2023/05/27 01:28:36;;;;;;;13.50;4.60;;;10.80;99.90;;;;;;6169201;23;20375;-74
2023/05/27 01:31:16;;;;;;;12.00;4.80;;;10.80;99.90;;;;;;6173198;23;20150;-75
2023/05/27 01:33:49;;;;;;;24.50;6.70;;;10.80;99.90;;;;;;6197011;23;20374;-74
2023/05/27 01:36:20;;;;;;;12.23;4.40;;;10.80;99.90;;;;;;6149767;23;20346;-75
2023/05/27 01:38:49;;;;;;;10.47;3.70;;;10.70;99.90;;;;;;6172318;23;20403;-76
2023/05/27 01:41:15;;;;;;;9.47;4.80;;;10.70;99.90;;;;;;6172586;23;20764;-77
2023/05/27 01:43:42;;;;;;;19.00;5.40;;;10.60;99.90;;;;;;6120643;23;20371;-75
2023/05/27 01:46:08;;;;;;;14.10;4.77;;;10.60;99.90;;;;;;6171192;23;20879;-76
2023/05/27 01:48:34;;;;;;;15.63;4.50;;;10.60;99.90;;;;;;6170666;23;20359;-76
2023/05/27 01:51:00;;;;;;;14.13;4.93;;;10.50;99.90;;;;;;6173085;23;20441;-76
2023/05/27 01:53:26;;;;;;;12.00;5.17;;;10.50;99.90;;;;;;6198704;23;20905;-75
2023/05/27 01:55:52;;;;;;;12.93;4.57;;;10.50;99.90;;;;;;6197593;23;20424;-75
2023/05/27 01:58:18;;;;;;;17.40;5.37;;;10.40;99.90;;;;;;6170902;23;20390;-76
2023/05/27 02:00:44;;;;;;;18.77;4.97;;;10.40;99.90;;;;;;6146345;23;20167;-75
2023/05/27 02:03:10;;;;;;;19.20;5.50;;;10.40;99.90;;;;;;6170630;23;20375;-74
2023/05/27 02:05:36;;;;;;;12.43;4.73;;;10.50;99.90;;;;;;6169646;23;20430;-75
2023/05/27 02:08:02;;;;;;;16.40;5.30;;;10.50;99.90;;;;;;6162467;23;20374;-75
2023/05/27 02:10:28;;;;;;;11.10;4.30;;;10.40;99.90;;;;;;6160690;23;20155;-74
2023/05/27 02:12:54;;;;;;;10.13;5.13;;;10.40;99.90;;;;;;6169312;23;20132;-76
2023/05/27 02:15:23;;;;;;;7.97;4.23;;;10.40;99.90;;;;;;6169621;23;20387;-75
2023/05/27 02:17:55;;;;;;;14.40;5.23;;;10.40;99.90;;;;;;6143746;23;20387;-76
2023/05/27 02:20:24;;;;;;;16.23;4.63;;;10.30;99.90;;;;;;6166319;23;20414;-75
2023/05/27 02:22:51;;;;;;;11.47;4.60;;;10.30;99.90;;;;;;6168569;23;20425;-75
2023/05/27 02:25:17;;;;;;;11.63;4.47;;;10.30;99.90;;;;;;6167182;23;20374;-75
2023/05/27 02:27:47;;;;;;;16.10;5.10;;;10.30;99.90;;;;;;6172305;23;20683;-77
2023/05/27 02:30:14;;;;;;;9.77;4.90;;;10.30;99.90;;;;;;6170530;23;20168;-75
2023/05/27 02:32:40;;;;;;;24.93;5.00;;;10.20;99.90;;;;;;6145429;23;20374;-75
2023/05/27 02:35:07;;;;;;;13.63;4.70;;;10.20;99.90;;;;;;6170503;23;20371;-75
2023/05/27 02:37:33;;;;;;;13.73;5.73;;;10.20;99.90;;;;;;6167892;23;20439;-74
2023/05/27 02:39:59;;;;;;;11.70;4.70;;;10.10;99.90;;;;;;6167336;23;20387;-73
2023/05/27 02:42:25;;;;;;;10.37;4.93;;;10.10;99.90;;;;;;6158460;23;20399;-75
2023/05/27 02:44:50;;;;;;;11.83;4.93;;;10.00;99.90;;;;;;6160694;23;20379;-75
2023/05/27 02:47:16;;;;;;;16.97;5.20;;;10.00;99.90;;;;;;6162551;23;20171;-75
2023/05/27 02:49:42;;;;;;;13.17;5.00;;;10.00;99.90;;;;;;6161506;23;20164;-74
2023/05/27 02:52:07;;;;;;;12.50;4.80;;;10.00;99.90;;;;;;6159976;23;20222;-74
2023/05/27 02:54:33;;;;;;;12.77;4.60;;;10.10;99.90;;;;;;6189817;23;20135;-76
2023/05/27 02:56:58;;;;;;;15.60;4.70;;;10.10;99.90;;;;;;6188167;23;20214;-74
2023/05/27 02:59:24;;;;;;;15.63;4.67;;;10.00;99.90;;;;;;6189456;23;20166;-75
2023/05/27 03:01:49;;;;;;;16.73;5.10;;;10.00;99.90;;;;;;6163930;23;20174;-74
2023/05/27 03:04:16;;;;;;;12.13;4.40;;;10.00;99.90;;;;;;6190384;23;20173;-73
2023/05/27 03:06:42;;;;;;;11.73;4.53;;;10.00;99.90;;;;;;6189851;23;20247;-75
2023/05/27 03:09:09;;;;;;;18.10;5.37;;;9.90;99.90;;;;;;6162862;23;20556;-75
2023/05/27 03:11:35;;;;;;;12.10;5.27;;;9.90;99.90;;;;;;6188471;23;20668;-76
2023/05/27 03:14:01;;;;;;;12.40;6.20;;;9.90;99.90;;;;;;6189229;23;20429;-74
2023/05/27 03:16:26;;;;;;;16.70;6.23;;;9.80;99.90;;;;;;6189868;23;20444;-75
2023/05/27 03:18:52;;;;;;;18.53;5.70;;;9.90;99.90;;;;;;6162283;23;20170;-74
2023/05/27 03:21:18;;;;;;;13.03;5.43;;;9.80;99.90;;;;;;6189660;23;20146;-74
2023/05/27 03:23:44;;;;;;;19.50;5.17;;;9.80;99.90;;;;;;6163457;23;20169;-75
2023/05/27 03:26:10;;;;;;;20.90;5.90;;;9.70;99.90;;;;;;6189108;23;20401;-74
2023/05/27 03:28:35;;;;;;;14.90;5.20;;;9.70;99.90;;;;;;6188490;23;20146;-74
2023/05/27 03:31:03;;;;;;;20.90;5.23;;;9.70;99.90;;;;;;6187217;23;20194;-73
2023/05/27 03:33:39;;;;;;;11.13;4.20;;;9.70;99.90;;;;;;6163282;23;20554;-74
2023/05/27 03:36:07;;;;;;;14.07;4.43;;;9.70;99.90;;;;;;6163773;23;20504;-72
2023/05/27 03:38:32;;;;;;;11.13;4.30;;;9.80;99.90;;;;;;6187724;23;20391;-74
2023/05/27 03:40:58;;;;;;;11.37;4.80;;;9.70;99.90;;;;;;6188518;23;20428;-74
2023/05/27 03:43:23;;;;;;;13.13;5.40;;;9.70;99.90;;;;;;6163789;23;20150;-75
2023/05/27 03:45:49;;;;;;;17.13;5.60;;;9.70;99.90;;;;;;6164425;23;20182;-75
2023/05/27 03:48:15;;;;;;;17.50;4.70;;;9.70;99.90;;;;;;6164410;23;20143;-74
2023/05/27 03:50:41;;;;;;;7.87;4.83;;;9.70;99.90;;;;;;6189323;23;20413;-73
2023/05/27 03:53:07;;;;;;;12.50;4.80;;;9.60;99.90;;;;;;6189844;23;20854;-74
2023/05/27 03:55:33;;;;;;;12.83;5.20;;;9.70;99.90;;;;;;6188435;23;20416;-74
2023/05/27 03:58:00;;;;;;;13.97;5.03;;;9.70;99.90;;;;;;6163096;23;20199;-74
2023/05/27 04:00:26;;;;;;;13.70;5.27;;;9.80;99.90;;;;;;6167566;23;20481;-74
2023/05/27 04:02:53;;;;;;;15.17;4.60;;;9.80;99.90;;;;;;6162877;23;20155;-74
2023/05/27 04:05:19;;;;;;;11.53;4.90;;;9.90;99.90;;;;;;6189039;23;20771;-74
2023/05/27 04:07:45;;;;;;;17.23;5.33;;;9.90;99.90;;;;;;6189256;23;20216;-75
2023/05/27 04:10:10;;;;;;;18.27;4.73;;;10.00;99.90;;;;;;6168439;23;20198;-74
2023/05/27 04:12:36;;;;;;;14.37;4.63;;;10.10;99.90;;;;;;6190165;23;20189;-74
2023/05/27 04:15:02;;;;;;;11.67;5.30;;;10.00;99.90;;;;;;6190608;23;20162;-74
2023/05/27 04:17:30;;;;;;;13.23;4.97;;;10.10;99.90;;;;;;6164064;23;20559;-75
2023/05/27 04:19:56;;;;;;;13.93;5.10;;;10.10;99.90;;;;;;6189067;23;20468;-74
2023/05/27 04:22:23;;;;;;;19.00;5.67;;;10.10;99.90;;;;;;6164086;23;20146;-74
2023/05/27 04:24:49;;;;;;;15.00;5.30;;;10.20;99.90;;;;;;6189670;23;20392;-74
2023/05/27 04:27:16;;;;;;;14.40;5.53;;;10.40;99.90;;;;;;6189427;23;20228;-75
2023/05/27 04:29:44;;;;;;;16.70;5.07;;;10.50;99.90;;;;;;6162387;23;20296;-74
2023/05/27 04:32:12;;;;;;;14.67;4.50;;;10.50;99.90;;;;;;6163285;23;20452;-74
2023/05/27 04:34:41;;;;;;;18.67;5.40;;;10.50;99.90;;;;;;6191391;23;20548;-74
2023/05/27 04:37:09;;;;;;;12.23;4.67;;;10.50;99.90;;;;;;6189978;23;20600;-74
2023/05/27 04:39:35;;;;;;;11.03;4.67;;;10.50;99.90;;;;;;6163131;23;20802;-76
2023/05/27 04:42:01;;;;;;;16.53;6.27;;;10.60;99.90;;;;;;6163071;23;20516;-75
2023/05/27 04:44:30;;;;;;;16.77;5.50;;;10.70;99.90;;;;;;6164130;23;20390;-74
2023/05/27 04:46:58;;;;;;;9.10;4.33;;;10.70;99.90;;;;;;6189283;23;20744;-75
2023/05/27 04:49:24;;;;;;;14.13;5.27;;;10.80;99.90;;;;;;6188666;23;20384;-75
2023/05/27 04:51:50;;;;;;;10.37;4.43;;;11.10;99.90;;;;;;6190184;23;20703;-74
2023/05/27 04:54:19;;;;;;;18.10;5.77;;;11.60;99.90;;;;;;6191570;23;20245;-73
2023/05/27 04:56:45;;;;;;;14.80;5.77;;;12.10;97.70;;;;;;6166242;23;20632;-74
2023/05/27 04:59:18;;;;;;;11.63;3.90;;;12.60;92.90;;;;;;6162710;23;20754;-76
2023/05/27 05:02:09;;;;;;;14.70;5.43;;;12.90;90.70;;;;;;6168156;23;20806;-76
2023/05/27 05:04:37;;;;;;;11.33;4.17;;;13.20;86.60;;;;;;6171336;23;20748;-74
2023/05/27 05:07:04;;;;;;;9.20;4.27;;;13.50;84.50;;;;;;6168487;23;20416;-74
2023/05/27 05:09:31;;;;;;;12.93;5.37;;;13.80;79.90;;;;;;6170019;23;20401;-75
2023/05/27 05:12:04;;;;;;;15.50;5.53;;;14.00;76.80;;;;;;6170658;23;20408;-74
2023/05/27 05:14:33;;;;;;;9.37;3.50;;;14.20;72.30;;;;;;6170529;23;20849;-75
2023/05/27 05:16:59;;;;;;;12.50;4.30;;;14.40;70.50;;;;;;6171586;23;20366;-75
2023/05/27 05:19:24;;;;;;;15.10;5.20;;;14.60;67.70;;;;;;6198295;23;20403;-76
2023/05/27 05:21:50;;;;;;;10.03;4.83;;;14.90;66.20;;;;;;6172197;23;20146;-76
2023/05/27 05:24:16;;;;;;;17.00;5.27;;;15.10;64.20;;;;;;6148994;23;20202;-75
2023/05/27 05:26:44;;;;;;;10.43;3.80;;;15.30;61.70;;;;;;6172878;23;20201;-76
2023/05/27 05:29:10;;;;;;;6.97;3.47;;;15.40;61.90;;;;;;6171669;23;20393;-75
2023/05/27 05:31:38;;;;;;;14.17;5.00;;;15.60;61.20;;;;;;6174527;23;20373;-75
2023/05/27 05:34:03;;;;;;;10.30;4.87;;;15.80;59.40;;;;;;6174851;23;20763;-77
2023/05/27 05:36:33;;;;;;;9.23;4.47;;;16.00;59.30;;;;;;6172646;23;20633;-74
2023/05/27 05:39:03;;;;;;;11.70;5.27;;;16.20;58.60;;;;;;6197096;23;20489;-75
2023/05/27 05:41:30;;;;;;;12.70;4.67;;;16.40;57.60;;;;;;6199815;23;20632;-76
2023/05/27 05:43:55;;;;;;;7.43;4.00;;;16.60;57.00;;;;;;6175688;23;20390;-77
2023/05/27 05:46:21;;;;;;;15.17;5.43;;;16.90;56.40;;;;;;6149644;23;20422;-76
2023/05/27 05:48:47;;;;;;;9.90;3.73;;;17.10;55.50;;;;;;6197973;23;20390;-75
2023/05/27 05:51:19;;;;;;;11.97;4.43;;;17.30;55.10;;;;;;6199121;23;20139;-77
2023/05/27 05:53:50;;;;;;;9.97;4.23;;;17.50;54.30;;;;;;6150178;23;20427;-75
2023/05/27 05:56:16;;;;;;;11.03;3.57;;;17.80;53.90;;;;;;6176133;23;20382;-76
2023/05/27 05:58:44;;;;;;;11.67;3.87;;;17.90;52.90;;;;;;6153089;23;20395;-76
2023/05/27 06:01:09;;;;;;;14.63;4.40;;;18.00;52.30;;;;;;6176290;23;20380;-76
2023/05/27 06:03:41;;;;;;;11.27;4.47;;;18.10;52.00;;;;;;6179424;23;20151;-75
2023/05/27 06:06:10;;;;;;;10.50;4.50;;;18.30;51.80;;;;;;6200913;23;20482;-76
2023/05/27 06:08:52;;;;;;;7.97;3.87;;;18.40;51.10;;;;;;6135323;23;20843;-76
2023/05/27 06:11:17;;;;;;;10.67;4.53;;;18.70;51.00;;;;;;6154614;23;20376;-77
2023/05/27 06:13:48;;;;;;;11.57;5.50;;;18.90;50.70;;;;;;6204334;23;20365;-76
2023/05/27 06:16:17;;;;;;;11.13;4.40;;;19.00;50.10;;;;;;6177346;23;20434;-76
2023/05/27 06:18:45;;;;;;;8.63;4.43;;;19.00;49.40;;;;;;6181483;23;20397;-76
2023/05/27 06:21:12;;;;;;;14.23;5.00;;;19.20;49.20;;;;;;6180762;23;20146;-75
2023/05/27 06:23:59;;;;;;;7.57;4.97;;;19.30;48.50;;;;;;6204069;23;20376;-75
2023/05/27 06:26:27;;;;;;;10.03;4.40;;;19.20;48.00;;;;;;6206808;23;20409;-76
2023/05/27 06:28:56;;;;;;;9.77;4.57;;;18.90;47.50;;;;;;6176051;23;20831;-77
2023/05/27 06:31:22;;;;;;;11.60;4.20;;;18.80;48.20;;;;;;6178310;23;20502;-79
2023/05/27 06:33:48;;;;;;;8.77;5.00;;;18.80;48.30;;;;;;6179404;23;20376;-77
2023/05/27 06:36:14;;;;;;;9.90;4.87;;;18.80;48.50;;;;;;6143516;23;20155;-76
2023/05/27 06:38:41;;;;;;;11.50;5.10;;;18.60;48.40;;;;;;6141459;23;20174;-77
2023/05/27 06:41:07;;;;;;;12.77;4.63;;;18.40;48.90;;;;;;6119594;23;20389;-75
2023/05/27 06:43:35;;;;;;;8.60;3.50;;;18.50;49.50;;;;;;6120411;23;20385;-77
2023/05/27 06:46:11;;;;;;;11.27;4.27;;;18.70;49.00;;;;;;6122311;23;20551;-76
2023/05/27 06:48:57;;;;;;;11.10;4.97;;;18.80;48.90;;;;;;6143288;23;20406;-76
2023/05/27 06:51:23;;;;;;;9.47;4.50;;;18.80;48.60;;;;;;6119059;23;20461;-76
2023/05/27 06:53:50;;;;;;;8.10;3.40;;;18.90;48.60;;;;;;6096712;23;20429;-76
2023/05/27 06:56:22;;;;;;;7.57;3.30;;;18.90;48.50;;;;;;6097622;23;20404;-76
2023/05/27 06:59:06;;;;;;;10.93;5.03;;;18.90;48.40;;;;;;6122604;23;20433;-80
2023/05/27 07:01:32;;;;;;;9.47;4.53;;;18.80;48.10;;;;;;6120476;23;20380;-77
2023/05/27 07:04:01;;;;;;;9.40;4.40;;;18.80;48.40;;;;;;6144086;23;20156;-77
2023/05/27 07:06:45;;;;;;;9.20;4.40;;;18.80;48.60;;;;;;6136233;23;20433;-76
2023/05/27 07:09:12;;;;;;;10.57;4.30;;;18.80;48.60;;;;;;6153367;23;20798;-75
2023/05/27 07:11:38;;;;;;;10.30;4.00;;;18.70;48.80;;;;;;6154899;23;20373;-76
2023/05/27 07:14:10;;;;;;;11.67;4.10;;;18.80;48.70;;;;;;6182410;23;20361;-78
2023/05/27 07:16:37;;;;;;;9.07;4.53;;;18.80;48.40;;;;;;6203588;23;20401;-75
2023/05/27 07:19:04;;;;;;;8.27;3.47;;;18.70;48.40;;;;;;6153240;23;20804;-77
2023/05/27 07:21:36;;;;;;;9.00;4.37;;;18.50;48.80;;;;;;6155277;23;20384;-77
2023/05/27 07:24:06;;;;;;;7.83;4.00;;;18.40;49.00;;;;;;6156390;23;20389;-77
2023/05/27 07:26:33;;;;;;;8.60;3.70;;;18.20;49.50;;;;;;6178337;23;20426;-77
2023/05/27 07:29:01;;;;;;;11.50;4.90;;;18.00;49.90;;;;;;6155105;23;20394;-75
2023/05/27 07:31:48;;;;;;;8.93;5.30;;;17.80;50.00;;;;;;6184552;23;20364;-77
2023/05/27 07:34:17;;;;;;;13.00;4.27;;;17.50;50.40;;;;;;6178146;23;20364;-79
2023/05/27 07:36:42;;;;;;;11.70;5.17;;;17.30;50.90;;;;;;6178127;23;20424;-76
2023/05/27 07:39:08;;;;;;;10.17;5.07;;;17.00;51.60;;;;;;6155405;23;20172;-79
2023/05/27 07:41:34;;;;;;;13.27;5.00;;;16.90;52.30;;;;;;6183777;23;20177;-78
2023/05/27 07:44:02;;;;;;;12.73;5.50;;;16.80;52.50;;;;;;6180178;23;20151;-75
2023/05/27 07:46:28;;;;;;;11.63;4.97;;;16.90;53.10;;;;;;6205446;23;20457;-79
2023/05/27 07:48:54;;;;;;;14.63;6.40;;;16.90;53.00;;;;;;6180912;23;20395;-78
2023/05/27 07:51:21;;;;;;;13.53;5.10;;;17.00;53.00;;;;;;6159122;23;20150;-76
2023/05/27 07:53:50;;;;;;;9.87;5.60;;;17.10;53.00;;;;;;6182401;23;20420;-77
2023/05/27 07:56:17;;;;;;;14.17;4.97;;;17.10;52.30;;;;;;6131659;23;20389;-77
2023/05/27 07:58:43;;;;;;;8.60;4.27;;;17.10;52.50;;;;;;6130694;23;20419;-76
2023/05/27 08:01:11;;;;;;;10.20;4.27;;;17.00;52.40;;;;;;6181051;23;20370;-76
2023/05/27 08:03:41;;;;;;;11.40;4.70;;;17.00;52.80;;;;;;6161314;23;20401;-78
2023/05/27 08:06:17;;;;;;;13.37;5.27;;;17.10;52.80;;;;;;6207979;23;20405;-76
2023/05/27 08:09:07;;;;;;;9.80;4.43;;;17.10;53.30;;;;;;6178696;23;20414;-78
2023/05/27 08:11:39;;;;;;;11.27;4.13;;;17.10;52.70;;;;;;6181832;23;20333;-76
2023/05/27 08:14:24;;;;;;;10.07;4.23;;;17.20;52.70;;;;;;6165626;23;20358;-78
2023/05/27 08:17:12;;;;;;;8.90;4.20;;;17.30;52.90;;;;;;6130862;23;20420;-77
2023/05/27 08:19:54;;;;;;;7.10;3.77;;;17.40;52.80;;;;;;6158367;23;20430;-77
2023/05/27 08:22:41;;;;;;;8.73;4.57;;;17.40;53.00;;;;;;6183748;23;20358;-77
2023/05/27 08:25:30;;;;;;;12.60;5.50;;;17.50;52.70;;;;;;6139778;23;20523;-77
2023/05/27 08:28:16;;;;;;;11.53;4.97;;;17.50;52.20;;;;;;6066584;23;20384;-78
2023/05/27 08:30:49;;;;;;;11.97;4.77;;;17.50;52.30;;;;;;6019521;23;20767;-78
2023/05/27 08:33:23;;;;;;;11.50;5.03;;;17.50;52.30;;;;;;6042857;23;20370;-81
2023/05/27 08:35:52;;;;;;;12.90;4.70;;;17.60;52.50;;;;;;6038609;23;20403;-75
2023/05/27 08:38:21;;;;;;;10.67;4.30;;;17.70;52.50;;;;;;6061512;23;20457;-80
2023/05/27 08:40:48;;;;;;;8.50;4.30;;;17.80;52.20;;;;;;6015665;23;20407;-78
2023/05/27 08:43:18;;;;;;;9.53;4.43;;;18.00;52.40;;;;;;6020370;23;20360;-78
2023/05/27 08:45:45;;;;;;;11.90;4.97;;;18.10;51.70;;;;;;6040851;23;20441;-78
2023/05/27 08:48:12;;;;;;;11.10;4.10;;;18.10;51.50;;;;;;6039642;23;20403;-77
2023/05/27 08:50:40;;;;;;;13.20;4.80;;;18.10;51.40;;;;;;6061904;23;20394;-78
2023/05/27 08:53:08;;;;;;;8.27;4.07;;;18.20;51.50;;;;;;6062376;23;20467;-78
2023/05/27 08:55:39;;;;;;;13.57;4.77;;;18.20;51.40;;;;;;6062388;23;20375;-77
2023/05/27 08:58:06;;;;;;;7.40;4.13;;;18.30;51.40;;;;;;6062929;23;20381;-77
2023/05/27 09:00:37;;;;;;;15.70;5.60;;;18.40;51.10;;;;;;6018519;23;20396;-78
2023/05/27 09:03:13;;;;;;;12.73;4.20;;;18.50;50.50;;;;;;6087628;23;20384;-78
2023/05/27 09:05:39;;;;;;;10.40;4.70;;;18.50;50.60;;;;;;6140755;23;20424;-77
2023/05/27 09:08:07;;;;;;;16.97;5.37;;;18.50;50.70;;;;;;6156920;23;20397;-78
2023/05/27 09:10:37;;;;;;;9.10;4.70;;;18.60;50.20;;;;;;6132117;23;20494;-77
2023/05/27 09:13:03;;;;;;;16.43;6.30;;;18.60;50.20;;;;;;6207519;23;20372;-78
2023/05/27 09:15:34;;;;;;;14.50;5.83;;;18.60;50.20;;;;;;6180907;23;20398;-78
2023/05/27 09:20:46;;;;;;;12.73;4.70;;;18.80;50.20;;;;;;6237687;23;20870;-78
2023/05/27 09:23:15;;;;;;;16.30;5.07;;;19.00;49.80;;;;;;6188887;23;20385;-79
2023/05/27 09:25:42;;;;;;;11.50;4.73;;;19.10;49.30;;;;;;6163827;23;20419;-79
2023/05/27 09:28:09;;;;;;;6.33;3.90;;;19.10;49.70;;;;;;6187576;23;20389;-79
2023/05/27 09:30:36;;;;;;;8.60;4.20;;;19.10;49.40;;;;;;6190043;23;20387;-77
2023/05/27 09:33:02;;;;;;;10.83;5.10;;;19.10;49.50;;;;;;6186321;23;20376;-78
2023/05/27 09:35:30;;;;;;;11.70;5.37;;;19.20;49.00;;;;;;6212804;23;20129;-81
2023/05/27 09:38:05;;;;;;;12.27;5.73;;;19.20;48.80;;;;;;6164521;23;20450;-78
2023/05/27 09:40:32;;;;;;;8.30;4.53;;;19.30;48.90;;;;;;6164830;23;20410;-78
2023/05/27 09:42:59;;;;;;;9.40;3.80;;;19.30;48.50;;;;;;6162569;23;20399;-79
2023/05/27 09:45:27;;;;;;;8.00;3.70;;;19.30;48.60;;;;;;6163249;23;20398;-79
2023/05/27 09:47:54;;;;;;;11.20;4.30;;;19.30;48.70;;;;;;6164570;23;20472;-79
2023/05/27 09:50:22;;;;;;;11.97;5.07;;;19.40;48.70;;;;;;6189297;23;20371;-78
2023/05/27 09:52:49;;;;;;;7.10;3.90;;;19.60;47.20;;;;;;6215589;23;20381;-79
2023/05/27 09:55:33;;;;;;;9.07;3.17;;;19.60;47.20;;;;;;6190916;23;20374;-80
2023/05/27 09:58:01;;;;;;;7.90;3.53;;;19.60;47.20;;;;;;6162250;23;20459;-78
2023/05/27 10:00:29;;;;;;;9.83;4.23;;;19.70;47.20;;;;;;6160593;23;20410;-78
2023/05/27 10:02:57;;;;;;;9.80;4.30;;;19.90;47.10;;;;;;6161066;23;20416;-79
2023/05/27 10:05:24;;;;;;;11.93;4.40;;;20.00;46.70;;;;;;6183143;23;20351;-79
2023/05/27 10:07:53;;;;;;;9.63;4.60;;;20.00;46.10;;;;;;6161161;23;20362;-80
2023/05/27 10:10:20;;;;;;;9.10;4.10;;;20.10;45.70;;;;;;6210985;23;20401;-80
2023/05/27 10:12:51;;;;;;;10.80;4.83;;;20.20;45.00;;;;;;6209781;23;20377;-80
2023/05/27 10:15:39;;;;;;;6.60;4.20;;;20.20;44.80;;;;;;6184321;23;20378;-78
2023/05/27 10:18:09;;;;;;;8.67;4.03;;;20.20;44.70;;;;;;6160110;23;20400;-79
2023/05/27 10:20:38;;;;;;;10.73;4.20;;;20.30;44.60;;;;;;6184305;23;20456;-79
2023/05/27 10:23:30;;;;;;;8.50;4.50;;;20.20;44.40;;;;;;6158889;23;20373;-79
2023/05/27 10:26:07;;;;;;;8.67;3.40;;;20.30;44.20;;;;;;6185180;23;20430;-80
2023/05/27 10:28:41;;;;;;;14.03;4.50;;;20.30;44.20;;;;;;6209314;23;20365;-80
2023/05/27 10:31:14;;;;;;;10.17;4.07;;;20.40;43.40;;;;;;6160272;23;20370;-79
2023/05/27 10:33:50;;;;;;;9.43;4.50;;;20.50;42.30;;;;;;6161568;23;20370;-80
2023/05/27 10:36:25;;;;;;;11.20;3.83;;;20.60;42.30;;;;;;6166849;23;20489;-79
2023/05/27 10:38:57;;;;;;;7.37;3.97;;;20.70;42.10;;;;;;6216849;23;20385;-80
2023/05/27 10:41:25;;;;;;;10.10;4.50;;;20.80;42.00;;;;;;6242613;23;20746;-81
2023/05/27 10:44:00;;;;;;;9.87;4.57;;;21.00;41.70;;;;;;6216332;23;20358;-79
2023/05/27 10:46:26;;;;;;;13.07;4.47;;;20.90;41.40;;;;;;6191811;23;20415;-80
2023/05/27 10:48:52;;;;;;;13.60;6.07;;;20.80;41.60;;;;;;6166042;23;20393;-77
2023/05/27 10:51:18;;;;;;;6.77;3.87;;;20.80;41.80;;;;;;6191620;23;20449;-80
2023/05/27 10:53:47;;;;;;;6.70;3.97;;;20.90;41.40;;;;;;6192291;23;20399;-81
2023/05/27 10:56:14;;;;;;;8.90;3.80;;;21.00;41.50;;;;;;6193544;23;20358;-80
2023/05/27 10:58:44;;;;;;;7.17;4.50;;;21.00;40.60;;;;;;6167745;23;20362;-80
2023/05/27 11:01:11;;;;;;;8.67;4.00;;;21.00;40.20;;;;;;6143334;23;20373;-80
2023/05/27 11:03:45;;;;;;;8.83;3.70;;;21.00;40.20;;;;;;6191673;23;20365;-80
2023/05/27 11:06:16;;;;;;;15.63;5.80;;;21.10;39.90;;;;;;6216690;23;20393;-79
2023/05/27 11:08:43;;;;;;;9.90;5.03;;;21.10;39.60;;;;;;6191478;23;20464;-79
2023/05/27 11:11:11;;;;;;;7.53;4.07;;;21.10;39.50;;;;;;6167857;23;20513;-79
2023/05/27 11:13:42;;;;;;;12.60;4.40;;;21.30;39.90;;;;;;6162683;23;20382;-79
2023/05/27 11:16:12;;;;;;;10.90;4.90;;;21.40;39.50;;;;;;6211919;23;20390;-79
2023/05/27 11:21:45;;;;;;;5.87;3.50;;;21.40;39.40;;;;;;6242554;22;20447;-80
2023/05/27 11:24:16;;;;;;;10.67;4.47;;;21.50;39.60;;;;;;6167234;23;20508;-79
2023/05/27 11:26:50;;;;;;;10.67;4.20;;;21.60;39.80;;;;;;6170233;23;20428;-79
2023/05/27 11:29:18;;;;;;;7.13;4.10;;;21.70;38.70;;;;;;6192101;23;20377;-78
2023/05/27 11:31:55;;;;;;;10.40;4.33;;;21.70;38.30;;;;;;6219391;23;20381;-81
2023/05/27 11:34:27;;;;;;;8.77;4.80;;;21.80;38.30;;;;;;6217790;23;20391;-81
2023/05/27 11:37:04;;;;;;;13.13;6.73;;;21.90;38.30;;;;;;6217549;23;20385;-79
2023/05/27 11:39:35;;;;;;;11.60;4.90;;;21.90;38.20;;;;;;6216473;23;20412;-81
2023/05/27 11:42:06;;;;;;;11.97;4.40;;;21.80;38.20;;;;;;6177259;22;20432;-80
2023/05/27 11:44:35;;;;;;;7.00;3.60;;;22.00;37.90;;;;;;6209990;23;20452;-80
2023/05/27 11:49:50;;;;;;;7.67;3.90;;;22.10;37.20;;;;;;6240860;22;20453;-79
2023/05/27 11:52:16;;;;;;;7.13;3.57;;;22.10;37.00;;;;;;6192014;23;20420;-80
2023/05/27 11:54:44;;;;;;;6.23;4.23;;;22.20;36.60;;;;;;6217330;23;20389;-80
2023/05/27 11:57:13;;;;;;;8.97;4.10;;;22.30;36.70;;;;;;6192722;22;20354;-80
2023/05/27 11:59:44;;;;;;;6.43;3.73;;;22.40;36.50;;;;;;6218848;23;20444;-80
2023/05/27 12:02:47;;;;;;;4.97;3.97;;;22.50;36.30;;;;;;6216957;23;20643;-80
2023/05/27 12:05:28;;;;;;;8.90;4.13;;;22.60;36.60;;;;;;6192664;23;20411;-79
2023/05/27 12:08:17;;;;;;;6.80;4.20;;;22.50;35.80;;;;;;6216932;23;20435;-80
2023/05/27 12:10:56;;;;;;;9.27;4.37;;;22.70;35.70;;;;;;6241453;23;20408;-80
2023/05/27 12:13:25;;;;;;;6.07;3.60;;;22.70;35.40;;;;;;6168213;23;20388;-80
2023/05/27 12:16:18;;;;;;;6.97;3.97;;;22.70;35.50;;;;;;6222258;23;20453;-80
2023/05/27 12:18:45;;;;;;;6.57;3.20;;;22.80;35.50;;;;;;6168476;23;20408;-80
2023/05/27 12:21:13;;;;;;;8.97;3.90;;;22.80;35.30;;;;;;6216179;23;20357;-80
2023/05/27 12:23:40;;;;;;;7.47;3.80;;;22.80;35.80;;;;;;6142420;23;20370;-79
2023/05/27 12:26:07;;;;;;;5.40;2.90;;;22.70;34.90;;;;;;6216928;23;20397;-81
2023/05/27 12:28:43;;;;;;;12.10;4.50;;;22.70;35.10;;;;;;6217074;23;20389;-81
2023/05/27 12:31:09;;;;;;;6.97;3.80;;;22.70;35.10;;;;;;6167342;23;20388;-81
2023/05/27 12:33:36;;;;;;;9.10;3.70;;;22.80;35.30;;;;;;6191779;23;20377;-80
2023/05/27 12:36:05;;;;;;;7.87;3.67;;;22.90;34.60;;;;;;6216876;23;20376;-80
2023/05/27 12:38:33;;;;;;;6.00;3.53;;;23.00;34.30;;;;;;6192765;23;20353;-80
2023/05/27 12:40:59;;;;;;;5.70;3.33;;;23.00;34.30;;;;;;6192062;23;20369;-79
2023/05/27 12:43:24;;;;;;;12.47;6.40;;;23.10;33.90;;;;;;6191111;23;20376;-81
2023/05/27 12:45:52;;;;;;;8.67;4.63;;;23.20;33.10;;;;;;6217709;23;20400;-82
2023/05/27 12:48:20;;;;;;;8.67;4.57;;;23.20;32.80;;;;;;6192151;23;20393;-81
2023/05/27 12:50:50;;;;;;;6.80;3.90;;;23.30;32.90;;;;;;6180978;23;20362;-80
2023/05/27 12:53:28;;;;;;;6.33;3.70;;;23.30;32.70;;;;;;6156849;23;20409;-80
2023/05/27 12:55:56;;;;;;;7.50;3.97;;;23.20;31.40;;;;;;6131528;23;20414;-81
2023/05/27 12:58:24;;;;;;;5.73;3.23;;;23.30;31.50;;;;;;6158409;23;20398;-82
2023/05/27 13:00:52;;;;;;;5.00;3.87;;;23.10;31.60;;;;;;6108374;23;20410;-80